sensor_id;sensor_type;location;lat;lon;timestamp;pressure;altitude;pressure_sealevel;temperature;humidity
33151;BME280;19508;42.578;23.416;2023-03-14T00:00:31;93892.66;;;4.04;50.25
33151;BME280;19508;42.578;23.416;2023-03-14T00:02:56;93886.53;;;3.97;50.70
33151;BME280;19508;42.578;23.416;2023-03-14T00:05:22;93888.78;;;4.00;51.30
33151;BME280;19508;42.578;23.416;2023-03-14T00:07:47;93888.25;;;3.85;51.53
33151;BME280;19508;42.578;23.416;2023-03-14T00:10:14;93890.25;;;3.89;51.11
33151;BME280;19508;42.578;23.416;2023-03-14T00:12:41;93881.91;;;3.79;51.88
33151;BME280;19508;42.578;23.416;2023-03-14T00:15:07;93864.69;;;3.82;51.63
33151;BME280;19508;42.578;23.416;2023-03-14T00:17:34;93865.72;;;3.81;51.83
33151;BME280;19508;42.578;23.416;2023-03-14T00:20:00;93868.16;;;3.82;52.41
33151;BME280;19508;42.578;23.416;2023-03-14T00:22:31;93866.78;;;3.66;52.42
33151;BME280;19508;42.578;23.416;2023-03-14T00:24:57;93853.28;;;3.68;52.57
33151;BME280;19508;42.578;23.416;2023-03-14T00:27:22;93843.44;;;3.68;52.98
33151;BME280;19508;42.578;23.416;2023-03-14T00:29:48;93844.06;;;3.57;52.71
33151;BME280;19508;42.578;23.416;2023-03-14T00:32:13;93835.94;;;3.32;53.02
33151;BME280;19508;42.578;23.416;2023-03-14T00:34:39;93830.66;;;3.26;53.12
33151;BME280;19508;42.578;23.416;2023-03-14T00:37:05;93818.34;;;3.38;53.08
33151;BME280;19508;42.578;23.416;2023-03-14T00:39:31;93817.13;;;3.34;53.09
33151;BME280;19508;42.578;23.416;2023-03-14T00:41:56;93799.50;;;3.33;52.58
33151;BME280;19508;42.578;23.416;2023-03-14T00:44:21;93806.44;;;3.40;52.12
33151;BME280;19508;42.578;23.416;2023-03-14T00:46:47;93815.47;;;3.33;52.34
33151;BME280;19508;42.578;23.416;2023-03-14T00:49:12;93799.13;;;3.29;52.23
33151;BME280;19508;42.578;23.416;2023-03-14T00:51:38;93810.56;;;3.30;51.87
33151;BME280;19508;42.578;23.416;2023-03-14T00:54:03;93810.72;;;3.48;51.91
33151;BME280;19508;42.578;23.416;2023-03-14T00:56:28;93808.50;;;3.45;51.80
33151;BME280;19508;42.578;23.416;2023-03-14T00:58:55;93810.34;;;3.38;51.52
33151;BME280;19508;42.578;23.416;2023-03-14T01:01:20;93815.06;;;3.36;51.84
33151;BME280;19508;42.578;23.416;2023-03-14T01:03:46;93806.84;;;3.44;51.64
33151;BME280;19508;42.578;23.416;2023-03-14T01:06:17;93818.09;;;3.46;51.78
33151;BME280;19508;42.578;23.416;2023-03-14T01:08:43;93804.22;;;3.31;52.15
33151;BME280;19508;42.578;23.416;2023-03-14T01:11:16;93805.84;;;3.32;52.44
33151;BME280;19508;42.578;23.416;2023-03-14T01:13:43;93788.53;;;3.09;52.59
33151;BME280;19508;42.578;23.416;2023-03-14T01:16:10;93797.09;;;3.25;52.42
33151;BME280;19508;42.578;23.416;2023-03-14T01:18:36;93790.97;;;3.18;52.78
33151;BME280;19508;42.578;23.416;2023-03-14T01:21:04;93781.13;;;3.25;52.68
33151;BME280;19508;42.578;23.416;2023-03-14T01:23:34;93790.13;;;3.24;52.49
33151;BME280;19508;42.578;23.416;2023-03-14T01:26:00;93783.59;;;3.13;52.28
33151;BME280;19508;42.578;23.416;2023-03-14T01:28:25;93787.50;;;3.10;52.75
33151;BME280;19508;42.578;23.416;2023-03-14T01:30:50;93771.75;;;3.09;52.31
33151;BME280;19508;42.578;23.416;2023-03-14T01:33:16;93773.38;;;3.10;52.76
33151;BME280;19508;42.578;23.416;2023-03-14T01:35:41;93753.53;;;3.06;52.30
33151;BME280;19508;42.578;23.416;2023-03-14T01:38:06;93762.72;;;3.17;52.00
33151;BME280;19508;42.578;23.416;2023-03-14T01:40:32;93774.38;;;3.16;52.56
33151;BME280;19508;42.578;23.416;2023-03-14T01:43:04;93756.59;;;3.09;52.09
33151;BME280;19508;42.578;23.416;2023-03-14T01:48:28;93751.69;;;3.06;52.54
33151;BME280;19508;42.578;23.416;2023-03-14T01:50:56;93757.81;;;3.14;52.85
33151;BME280;19508;42.578;23.416;2023-03-14T01:53:22;93755.81;;;3.02;52.11
33151;BME280;19508;42.578;23.416;2023-03-14T01:55:52;93766.22;;;3.10;52.52
33151;BME280;19508;42.578;23.416;2023-03-14T01:58:22;93761.94;;;3.09;53.03
33151;BME280;19508;42.578;23.416;2023-03-14T02:00:50;93753.53;;;3.13;52.95
33151;BME280;19508;42.578;23.416;2023-03-14T02:03:16;93757.88;;;3.00;53.09
33151;BME280;19508;42.578;23.416;2023-03-14T02:05:43;93768.72;;;2.92;52.88
33151;BME280;19508;42.578;23.416;2023-03-14T02:08:15;93756.63;;;2.90;53.76
33151;BME280;19508;42.578;23.416;2023-03-14T02:10:47;93767.25;;;3.03;53.52
33151;BME280;19508;42.578;23.416;2023-03-14T02:13:16;93762.38;;;3.00;53.23
33151;BME280;19508;42.578;23.416;2023-03-14T02:15:42;93765.63;;;3.02;53.71
33151;BME280;19508;42.578;23.416;2023-03-14T02:18:08;93757.88;;;2.80;54.31
33151;BME280;19508;42.578;23.416;2023-03-14T02:20:34;93763.19;;;2.87;54.67
33151;BME280;19508;42.578;23.416;2023-03-14T02:23:03;93744.81;;;2.79;54.90
33151;BME280;19508;42.578;23.416;2023-03-14T02:28:10;93758.53;;;2.76;55.62
33151;BME280;19508;42.578;23.416;2023-03-14T02:30:35;93745.25;;;2.69;56.14
33151;BME280;19508;42.578;23.416;2023-03-14T02:33:27;93749.75;;;2.62;56.45
33151;BME280;19508;42.578;23.416;2023-03-14T02:36:00;93749.75;;;2.62;57.15
33151;BME280;19508;42.578;23.416;2023-03-14T02:40:55;93753.84;;;2.58;57.83
33151;BME280;19508;42.578;23.416;2023-03-14T02:43:20;93743.00;;;2.46;58.15
33151;BME280;19508;42.578;23.416;2023-03-14T02:45:50;93760.41;;;2.49;58.73
33151;BME280;19508;42.578;23.416;2023-03-14T02:50:46;93751.19;;;2.38;58.95
33151;BME280;19508;42.578;23.416;2023-03-14T02:53:17;93754.66;;;2.45;58.79
33151;BME280;19508;42.578;23.416;2023-03-14T02:55:47;93738.31;;;2.35;58.96
33151;BME280;19508;42.578;23.416;2023-03-14T02:58:13;93748.72;;;2.30;58.84
33151;BME280;19508;42.578;23.416;2023-03-14T03:00:38;93734.03;;;2.28;59.01
33151;BME280;19508;42.578;23.416;2023-03-14T03:03:04;93746.50;;;2.40;58.77
33151;BME280;19508;42.578;23.416;2023-03-14T03:05:31;93758.56;;;2.36;58.94
33151;BME280;19508;42.578;23.416;2023-03-14T03:07:57;93748.94;;;2.29;59.01
33151;BME280;19508;42.578;23.416;2023-03-14T03:10:23;93760.41;;;2.42;59.39
33151;BME280;19508;42.578;23.416;2023-03-14T03:12:48;93762.44;;;2.40;59.37
33151;BME280;19508;42.578;23.416;2023-03-14T03:15:14;93768.97;;;2.44;59.35
33151;BME280;19508;42.578;23.416;2023-03-14T03:17:39;93754.47;;;2.27;59.93
33151;BME280;19508;42.578;23.416;2023-03-14T03:20:05;93751.38;;;2.30;59.90
33151;BME280;19508;42.578;23.416;2023-03-14T03:22:35;93758.34;;;2.24;60.58
33151;BME280;19508;42.578;23.416;2023-03-14T03:25:01;93754.88;;;2.17;60.97
33151;BME280;19508;42.578;23.416;2023-03-14T03:27:26;93746.28;;;2.09;61.49
33151;BME280;19508;42.578;23.416;2023-03-14T03:29:52;93746.69;;;2.06;62.25
33151;BME280;19508;42.578;23.416;2023-03-14T03:32:17;93751.78;;;2.01;62.42
33151;BME280;19508;42.578;23.416;2023-03-14T03:34:43;93740.53;;;1.85;62.46
33151;BME280;19508;42.578;23.416;2023-03-14T03:37:08;93755.06;;;1.89;62.58
33151;BME280;19508;42.578;23.416;2023-03-14T03:39:33;93750.78;;;1.88;61.82
33151;BME280;19508;42.578;23.416;2023-03-14T03:41:59;93741.97;;;1.81;61.17
33151;BME280;19508;42.578;23.416;2023-03-14T03:44:24;93738.25;;;1.69;61.09
33151;BME280;19508;42.578;23.416;2023-03-14T03:46:49;93757.06;;;1.74;60.31
33151;BME280;19508;42.578;23.416;2023-03-14T03:49:15;93748.91;;;1.82;60.20
33151;BME280;19508;42.578;23.416;2023-03-14T03:51:40;93761.13;;;1.70;60.25
33151;BME280;19508;42.578;23.416;2023-03-14T03:54:06;93748.44;;;1.59;60.56
33151;BME280;19508;42.578;23.416;2023-03-14T03:56:31;93750.06;;;1.60;60.58
33151;BME280;19508;42.578;23.416;2023-03-14T03:58:57;93754.75;;;1.51;60.48
33151;BME280;19508;42.578;23.416;2023-03-14T04:01:22;93763.94;;;1.49;60.74
33151;BME280;19508;42.578;23.416;2023-03-14T04:03:47;93763.94;;;1.49;60.86
33151;BME280;19508;42.578;23.416;2023-03-14T04:06:13;93762.31;;;1.48;60.92
33151;BME280;19508;42.578;23.416;2023-03-14T04:08:39;93765.38;;;1.58;60.56
33151;BME280;19508;42.578;23.416;2023-03-14T04:11:09;93772.47;;;1.44;61.49
33151;BME280;19508;42.578;23.416;2023-03-14T04:13:34;93765.53;;;1.43;61.72
33151;BME280;19508;42.578;23.416;2023-03-14T04:15:59;93754.50;;;1.39;60.79
33151;BME280;19508;42.578;23.416;2023-03-14T04:18:25;93760.84;;;1.38;60.37
33151;BME280;19508;42.578;23.416;2023-03-14T04:20:55;93756.44;;;1.65;60.05
33151;BME280;19508;42.578;23.416;2023-03-14T04:23:22;93748.69;;;1.64;59.42
33151;BME280;19508;42.578;23.416;2023-03-14T04:25:50;93740.63;;;1.37;60.92
33151;BME280;19508;42.578;23.416;2023-03-14T04:28:16;93746.56;;;1.39;61.24
33151;BME280;19508;42.578;23.416;2023-03-14T04:30:41;93736.72;;;1.33;61.32
33151;BME280;19508;42.578;23.416;2023-03-14T04:33:07;93730.03;;;1.37;61.48
33151;BME280;19508;42.578;23.416;2023-03-14T04:35:33;93740.38;;;1.26;61.62
33151;BME280;19508;42.578;23.416;2023-03-14T04:37:58;93728.34;;;1.23;61.50
33151;BME280;19508;42.578;23.416;2023-03-14T04:40:25;93738.94;;;1.23;61.73
33151;BME280;19508;42.578;23.416;2023-03-14T04:42:50;93732.78;;;1.16;61.95
33151;BME280;19508;42.578;23.416;2023-03-14T04:45:15;93727.91;;;1.13;62.38
33151;BME280;19508;42.578;23.416;2023-03-14T04:47:41;93724.66;;;1.24;62.22
33151;BME280;19508;42.578;23.416;2023-03-14T04:50:07;93715.66;;;1.12;62.50
33151;BME280;19508;42.578;23.416;2023-03-14T04:52:33;93712.00;;;1.13;62.66
33151;BME280;19508;42.578;23.416;2023-03-14T04:54:58;93709.38;;;1.33;61.79
33151;BME280;19508;42.578;23.416;2023-03-14T04:57:24;93708.41;;;1.40;61.22
33151;BME280;19508;42.578;23.416;2023-03-14T04:59:49;93697.19;;;1.52;61.41
33151;BME280;19508;42.578;23.416;2023-03-14T05:02:15;93699.84;;;1.52;61.49
33151;BME280;19508;42.578;23.416;2023-03-14T05:04:40;93704.34;;;1.58;61.99
33151;BME280;19508;42.578;23.416;2023-03-14T05:07:05;93714.16;;;1.57;62.11
33151;BME280;19508;42.578;23.416;2023-03-14T05:09:31;93704.97;;;1.60;62.52
33151;BME280;19508;42.578;23.416;2023-03-14T05:11:56;93703.13;;;1.60;61.92
33151;BME280;19508;42.578;23.416;2023-03-14T05:14:22;93702.91;;;1.62;61.77
33151;BME280;19508;42.578;23.416;2023-03-14T05:16:47;93702.75;;;1.77;60.83
33151;BME280;19508;42.578;23.416;2023-03-14T05:19:12;93707.03;;;2.04;60.39
33151;BME280;19508;42.578;23.416;2023-03-14T05:21:41;93709.28;;;2.27;59.94
33151;BME280;19508;42.578;23.416;2023-03-14T05:24:06;93708.88;;;2.37;59.37
33151;BME280;19508;42.578;23.416;2023-03-14T05:26:32;93707.22;;;2.62;59.07
33151;BME280;19508;42.578;23.416;2023-03-14T05:28:58;93710.03;;;2.80;58.81
33151;BME280;19508;42.578;23.416;2023-03-14T05:31:23;93705.28;;;2.89;58.27
33151;BME280;19508;42.578;23.416;2023-03-14T05:33:48;93689.06;;;3.17;57.41
33151;BME280;19508;42.578;23.416;2023-03-14T05:36:14;93698.34;;;3.39;57.11
33151;BME280;19508;42.578;23.416;2023-03-14T05:38:39;93693.75;;;3.60;56.77
33151;BME280;19508;42.578;23.416;2023-03-14T05:41:05;93685.38;;;3.88;56.54
33151;BME280;19508;42.578;23.416;2023-03-14T05:43:30;93680.84;;;4.20;55.47
33151;BME280;19508;42.578;23.416;2023-03-14T05:45:56;93691.47;;;4.45;54.72
33151;BME280;19508;42.578;23.416;2023-03-14T05:48:21;93675.81;;;4.73;54.37
33151;BME280;19508;42.578;23.416;2023-03-14T05:50:47;93684.69;;;5.04;53.23
33151;BME280;19508;42.578;23.416;2023-03-14T05:53:13;93682.34;;;5.14;52.01
33151;BME280;19508;42.578;23.416;2023-03-14T05:55:39;93687.47;;;5.64;52.00
33151;BME280;19508;42.578;23.416;2023-03-14T05:58:05;93682.25;;;5.69;50.80
33151;BME280;19508;42.578;23.416;2023-03-14T06:00:30;93686.88;;;5.62;51.36
33151;BME280;19508;42.578;23.416;2023-03-14T06:02:56;93679.81;;;5.68;50.95
33151;BME280;19508;42.578;23.416;2023-03-14T06:05:21;93684.13;;;5.99;50.25
33151;BME280;19508;42.578;23.416;2023-03-14T06:07:47;93685.59;;;6.25;49.18
33151;BME280;19508;42.578;23.416;2023-03-14T06:10:12;93686.25;;;6.08;50.05
33151;BME280;19508;42.578;23.416;2023-03-14T06:12:37;93686.84;;;6.22;49.47
33151;BME280;19508;42.578;23.416;2023-03-14T06:15:03;93690.72;;;6.38;49.23
33151;BME280;19508;42.578;23.416;2023-03-14T06:17:29;93686.19;;;6.38;48.95
33151;BME280;19508;42.578;23.416;2023-03-14T06:19:54;93687.84;;;6.86;48.50
33151;BME280;19508;42.578;23.416;2023-03-14T06:22:19;93684.09;;;6.64;48.13
33151;BME280;19508;42.578;23.416;2023-03-14T06:24:45;93687.13;;;6.79;48.12
33151;BME280;19508;42.578;23.416;2023-03-14T06:27:10;93678.06;;;6.80;47.31
33151;BME280;19508;42.578;23.416;2023-03-14T06:29:36;93681.50;;;7.16;46.72
33151;BME280;19508;42.578;23.416;2023-03-14T06:32:01;93678.63;;;6.82;47.10
33151;BME280;19508;42.578;23.416;2023-03-14T06:34:27;93679.94;;;6.68;47.99
33151;BME280;19508;42.578;23.416;2023-03-14T06:36:52;93669.88;;;6.98;47.68
33151;BME280;19508;42.578;23.416;2023-03-14T06:39:17;93675.22;;;7.22;46.88
33151;BME280;19508;42.578;23.416;2023-03-14T06:41:43;93676.47;;;7.31;46.10
33151;BME280;19508;42.578;23.416;2023-03-14T06:44:08;93673.91;;;7.36;45.75
33151;BME280;19508;42.578;23.416;2023-03-14T06:46:34;93661.78;;;7.74;44.63
33151;BME280;19508;42.578;23.416;2023-03-14T06:48:59;93673.81;;;8.33;43.96
33151;BME280;19508;42.578;23.416;2023-03-14T06:51:24;93661.41;;;8.44;43.28
33151;BME280;19508;42.578;23.416;2023-03-14T06:53:50;93670.34;;;8.83;41.46
33151;BME280;19508;42.578;23.416;2023-03-14T06:56:15;93661.63;;;8.76;42.41
33151;BME280;19508;42.578;23.416;2023-03-14T06:58:41;93661.16;;;9.18;42.07
33151;BME280;19508;42.578;23.416;2023-03-14T07:01:26;93655.44;;;9.14;41.64
33151;BME280;19508;42.578;23.416;2023-03-14T07:03:52;93645.13;;;9.72;40.88
33151;BME280;19508;42.578;23.416;2023-03-14T07:06:17;93643.84;;;9.74;39.75
33151;BME280;19508;42.578;23.416;2023-03-14T07:08:43;93639.88;;;9.82;38.83
33151;BME280;19508;42.578;23.416;2023-03-14T07:11:09;93635.56;;;9.81;39.22
33151;BME280;19508;42.578;23.416;2023-03-14T07:13:37;93635.81;;;10.33;37.88
33151;BME280;19508;42.578;23.416;2023-03-14T07:16:02;93633.44;;;10.74;38.86
33151;BME280;19508;42.578;23.416;2023-03-14T07:18:28;93619.69;;;11.13;38.04
33151;BME280;19508;42.578;23.416;2023-03-14T07:20:53;93624.28;;;11.17;37.00
33151;BME280;19508;42.578;23.416;2023-03-14T07:23:19;93614.38;;;10.81;37.97
33151;BME280;19508;42.578;23.416;2023-03-14T07:25:44;93620.53;;;10.76;37.43
33151;BME280;19508;42.578;23.416;2023-03-14T07:28:09;93622.41;;;10.70;37.33
33151;BME280;19508;42.578;23.416;2023-03-14T07:30:35;93623.91;;;10.98;37.25
33151;BME280;19508;42.578;23.416;2023-03-14T07:33:00;93610.63;;;11.29;37.07
33151;BME280;19508;42.578;23.416;2023-03-14T07:35:25;93613.13;;;10.98;37.17
33151;BME280;19508;42.578;23.416;2023-03-14T07:37:51;93616.59;;;11.41;36.69
33151;BME280;19508;42.578;23.416;2023-03-14T07:40:16;93602.75;;;11.95;35.43
33151;BME280;19508;42.578;23.416;2023-03-14T07:42:42;93597.97;;;12.43;35.08
33151;BME280;19508;42.578;23.416;2023-03-14T07:45:09;93600.66;;;12.68;34.18
33151;BME280;19508;42.578;23.416;2023-03-14T07:47:35;93604.41;;;12.78;33.84
33151;BME280;19508;42.578;23.416;2023-03-14T07:50:00;93594.91;;;13.26;33.03
33151;BME280;19508;42.578;23.416;2023-03-14T07:52:26;93593.44;;;13.49;32.72
33151;BME280;19508;42.578;23.416;2023-03-14T07:54:51;93587.28;;;13.93;32.08
33151;BME280;19508;42.578;23.416;2023-03-14T07:57:17;93587.16;;;13.69;32.93
33151;BME280;19508;42.578;23.416;2023-03-14T07:59:42;93587.63;;;14.25;31.91
33151;BME280;19508;42.578;23.416;2023-03-14T08:02:12;93588.34;;;14.75;30.34
33151;BME280;19508;42.578;23.416;2023-03-14T08:04:38;93587.47;;;15.09;29.75
33151;BME280;19508;42.578;23.416;2023-03-14T08:07:04;93580.91;;;14.57;30.52
33151;BME280;19508;42.578;23.416;2023-03-14T08:09:30;93584.72;;;14.85;30.32
33151;BME280;19508;42.578;23.416;2023-03-14T08:11:55;93578.97;;;14.91;31.53
33151;BME280;19508;42.578;23.416;2023-03-14T08:14:21;93585.25;;;15.16;31.64
33151;BME280;19508;42.578;23.416;2023-03-14T08:16:49;93585.09;;;15.02;30.74
33151;BME280;19508;42.578;23.416;2023-03-14T08:19:15;93579.19;;;15.48;31.12
33151;BME280;19508;42.578;23.416;2023-03-14T08:21:40;93592.28;;;15.17;30.99
33151;BME280;19508;42.578;23.416;2023-03-14T08:24:06;93587.91;;;14.24;31.67
33151;BME280;19508;42.578;23.416;2023-03-14T08:26:31;93581.75;;;14.52;32.23
33151;BME280;19508;42.578;23.416;2023-03-14T08:28:57;93586.25;;;14.67;32.01
33151;BME280;19508;42.578;23.416;2023-03-14T08:31:22;93582.50;;;14.92;31.50
33151;BME280;19508;42.578;23.416;2023-03-14T08:33:47;93585.41;;;15.01;30.93
33151;BME280;19508;42.578;23.416;2023-03-14T08:36:13;93580.81;;;15.25;31.39
33151;BME280;19508;42.578;23.416;2023-03-14T08:38:38;93569.84;;;15.35;30.52
33151;BME280;19508;42.578;23.416;2023-03-14T08:41:04;93569.97;;;15.25;30.31
33151;BME280;19508;42.578;23.416;2023-03-14T08:43:30;93574.13;;;14.59;30.97
33151;BME280;19508;42.578;23.416;2023-03-14T08:46:00;93575.00;;;15.13;31.79
33151;BME280;19508;42.578;23.416;2023-03-14T08:48:26;93541.72;;;16.12;29.76
33151;BME280;19508;42.578;23.416;2023-03-14T08:50:51;93550.22;;;16.43;28.71
33151;BME280;19508;42.578;23.416;2023-03-14T08:53:17;93550.34;;;17.16;28.57
33151;BME280;19508;42.578;23.416;2023-03-14T08:55:43;93547.94;;;16.69;30.68
33151;BME280;19508;42.578;23.416;2023-03-14T08:58:08;93547.53;;;15.86;29.65
33151;BME280;19508;42.578;23.416;2023-03-14T09:00:33;93546.06;;;16.97;27.85
33151;BME280;19508;42.578;23.416;2023-03-14T09:02:59;93540.19;;;16.57;28.30
33151;BME280;19508;42.578;23.416;2023-03-14T09:05:24;93539.09;;;16.77;28.35
33151;BME280;19508;42.578;23.416;2023-03-14T09:07:50;93533.41;;;17.06;28.29
33151;BME280;19508;42.578;23.416;2023-03-14T09:10:15;93533.41;;;17.88;26.91
33151;BME280;19508;42.578;23.416;2023-03-14T09:12:41;93523.59;;;18.01;26.87
33151;BME280;19508;42.578;23.416;2023-03-14T09:15:07;93520.03;;;18.37;27.60
33151;BME280;19508;42.578;23.416;2023-03-14T09:17:32;93508.28;;;18.27;26.28
33151;BME280;19508;42.578;23.416;2023-03-14T09:19:58;93503.69;;;18.59;27.38
33151;BME280;19508;42.578;23.416;2023-03-14T09:22:23;93498.47;;;18.26;26.52
33151;BME280;19508;42.578;23.416;2023-03-14T09:24:49;93484.72;;;18.54;27.63
33151;BME280;19508;42.578;23.416;2023-03-14T09:27:14;93478.03;;;18.60;26.24
33151;BME280;19508;42.578;23.416;2023-03-14T09:29:39;93484.25;;;17.93;27.48
33151;BME280;19508;42.578;23.416;2023-03-14T09:32:05;93468.47;;;18.94;24.97
33151;BME280;19508;42.578;23.416;2023-03-14T09:34:30;93464.94;;;18.93;25.41
33151;BME280;19508;42.578;23.416;2023-03-14T09:36:56;93449.56;;;18.44;26.09
33151;BME280;19508;42.578;23.416;2023-03-14T09:39:22;93454.88;;;18.71;26.56
33151;BME280;19508;42.578;23.416;2023-03-14T09:41:49;93456.50;;;18.27;26.96
33151;BME280;19508;42.578;23.416;2023-03-14T09:44:43;93445.97;;;18.35;26.83
33151;BME280;19508;42.578;23.416;2023-03-14T09:47:13;93451.00;;;17.83;26.88
33151;BME280;19508;42.578;23.416;2023-03-14T09:49:41;93452.03;;;17.87;26.42
33151;BME280;19508;42.578;23.416;2023-03-14T09:52:31;93452.03;;;18.31;26.85
33151;BME280;19508;42.578;23.416;2023-03-14T09:55:00;93439.63;;;18.03;26.30
33151;BME280;19508;42.578;23.416;2023-03-14T09:57:28;93433.91;;;18.04;26.46
33151;BME280;19508;42.578;23.416;2023-03-14T09:59:57;93429.75;;;18.07;27.12
33151;BME280;19508;42.578;23.416;2023-03-14T10:02:28;93424.69;;;18.14;27.59
33151;BME280;19508;42.578;23.416;2023-03-14T10:04:56;93414.75;;;18.41;27.10
33151;BME280;19508;42.578;23.416;2023-03-14T10:07:32;93416.56;;;18.54;27.49
33151;BME280;19508;42.578;23.416;2023-03-14T10:09:58;93407.31;;;18.55;28.02
33151;BME280;19508;42.578;23.416;2023-03-14T10:12:35;93398.88;;;19.05;26.50
33151;BME280;19508;42.578;23.416;2023-03-14T10:15:07;93403.69;;;19.65;26.03
33151;BME280;19508;42.578;23.416;2023-03-14T10:20:38;93391.94;;;18.90;27.22
33151;BME280;19508;42.578;23.416;2023-03-14T10:25:40;93381.56;;;18.39;27.78
33151;BME280;19508;42.578;23.416;2023-03-14T10:28:09;93371.78;;;18.69;27.26
33151;BME280;19508;42.578;23.416;2023-03-14T10:30:44;93371.16;;;19.29;26.74
33151;BME280;19508;42.578;23.416;2023-03-14T10:33:18;93360.16;;;19.77;26.64
33151;BME280;19508;42.578;23.416;2023-03-14T10:35:45;93347.63;;;19.93;25.38
33151;BME280;19508;42.578;23.416;2023-03-14T10:38:13;93347.16;;;20.00;26.13
33151;BME280;19508;42.578;23.416;2023-03-14T10:40:41;93345.03;;;19.88;25.88
33151;BME280;19508;42.578;23.416;2023-03-14T10:43:16;93336.31;;;20.21;25.24
33151;BME280;19508;42.578;23.416;2023-03-14T10:45:43;93322.97;;;20.75;25.07
33151;BME280;19508;42.578;23.416;2023-03-14T10:48:24;93325.34;;;20.47;24.74
33151;BME280;19508;42.578;23.416;2023-03-14T10:50:59;93313.56;;;21.23;24.89
33151;BME280;19508;42.578;23.416;2023-03-14T10:53:33;93310.66;;;21.69;23.57
33151;BME280;19508;42.578;23.416;2023-03-14T10:56:02;93313.16;;;21.95;24.08
33151;BME280;19508;42.578;23.416;2023-03-14T10:58:30;93305.81;;;21.25;24.50
33151;BME280;19508;42.578;23.416;2023-03-14T11:06:41;93269.06;;;20.37;25.51
33151;BME280;19508;42.578;23.416;2023-03-14T11:09:35;93273.56;;;19.78;25.33
33151;BME280;19508;42.578;23.416;2023-03-14T11:14:55;93260.31;;;20.06;25.41
33151;BME280;19508;42.578;23.416;2023-03-14T11:17:44;93251.69;;;20.33;24.82
33151;BME280;19508;42.578;23.416;2023-03-14T11:20:35;93246.75;;;20.65;24.22
33151;BME280;19508;42.578;23.416;2023-03-14T11:25:57;93248.63;;;21.32;23.27
33151;BME280;19508;42.578;23.416;2023-03-14T11:28:35;93233.63;;;21.08;24.00
33151;BME280;19508;42.578;23.416;2023-03-14T11:31:13;93218.16;;;21.54;23.28
33151;BME280;19508;42.578;23.416;2023-03-14T11:36:41;93207.56;;;20.81;24.07
33151;BME280;19508;42.578;23.416;2023-03-14T11:39:17;93195.31;;;21.95;23.12
33151;BME280;19508;42.578;23.416;2023-03-14T11:41:49;93189.75;;;21.59;23.39
33151;BME280;19508;42.578;23.416;2023-03-14T11:44:32;93183.78;;;22.60;22.04
33151;BME280;19508;42.578;23.416;2023-03-14T11:47:07;93180.75;;;23.14;21.17
33151;BME280;19508;42.578;23.416;2023-03-14T11:52:14;93172.13;;;24.27;22.06
33151;BME280;19508;42.578;23.416;2023-03-14T11:54:55;93172.34;;;23.34;21.41
33151;BME280;19508;42.578;23.416;2023-03-14T11:57:23;93152.50;;;24.13;19.73
33151;BME280;19508;42.578;23.416;2023-03-14T11:59:57;93146.41;;;23.60;20.40
33151;BME280;19508;42.578;23.416;2023-03-14T12:07:34;93147.28;;;24.90;19.85
33151;BME280;19508;42.578;23.416;2023-03-14T12:10:04;93137.47;;;24.73;19.55
33151;BME280;19508;42.578;23.416;2023-03-14T12:12:30;93138.75;;;24.29;20.59
33151;BME280;19508;42.578;23.416;2023-03-14T12:14:58;93130.31;;;24.06;20.10
33151;BME280;19508;42.578;23.416;2023-03-14T12:17:33;93121.25;;;23.89;19.85
33151;BME280;19508;42.578;23.416;2023-03-14T12:22:51;93115.28;;;25.01;19.14
33151;BME280;19508;42.578;23.416;2023-03-14T12:25:26;93111.84;;;24.22;20.43
33151;BME280;19508;42.578;23.416;2023-03-14T12:30:39;93094.63;;;26.11;18.61
33151;BME280;19508;42.578;23.416;2023-03-14T12:35:37;93102.72;;;26.24;18.18
33151;BME280;19508;42.578;23.416;2023-03-14T12:38:09;93084.13;;;25.98;17.78
33151;BME280;19508;42.578;23.416;2023-03-14T12:40:40;93083.13;;;26.55;18.00
33151;BME280;19508;42.578;23.416;2023-03-14T12:43:40;93075.25;;;27.10;17.57
33151;BME280;19508;42.578;23.416;2023-03-14T12:48:45;93077.34;;;27.88;16.27
33151;BME280;19508;42.578;23.416;2023-03-14T12:51:13;93072.50;;;28.18;16.01
33151;BME280;19508;42.578;23.416;2023-03-14T12:56:51;93068.22;;;26.90;17.71
33151;BME280;19508;42.578;23.416;2023-03-14T13:01:55;93060.72;;;25.26;17.88
33151;BME280;19508;42.578;23.416;2023-03-14T13:04:27;93056.34;;;25.22;17.57
33151;BME280;19508;42.578;23.416;2023-03-14T13:06:58;93048.59;;;25.50;17.66
33151;BME280;19508;42.578;23.416;2023-03-14T13:12:13;93031.44;;;26.52;16.57
33151;BME280;19508;42.578;23.416;2023-03-14T13:14:47;93030.16;;;25.54;17.85
33151;BME280;19508;42.578;23.416;2023-03-14T13:17:15;93023.84;;;25.73;18.08
33151;BME280;19508;42.578;23.416;2023-03-14T13:19:57;93015.38;;;25.85;17.48
33151;BME280;19508;42.578;23.416;2023-03-14T13:22:28;93031.06;;;26.31;16.90
33151;BME280;19508;42.578;23.416;2023-03-14T13:25:03;93009.47;;;26.36;16.64
33151;BME280;19508;42.578;23.416;2023-03-14T13:27:32;93011.31;;;26.52;16.14
33151;BME280;19508;42.578;23.416;2023-03-14T13:29:59;92997.56;;;26.55;16.22
33151;BME280;19508;42.578;23.416;2023-03-14T13:32:29;92999.25;;;25.65;17.12
33151;BME280;19508;42.578;23.416;2023-03-14T13:34:59;92997.97;;;25.16;17.10
33151;BME280;19508;42.578;23.416;2023-03-14T13:37:26;92991.50;;;25.28;16.74
33151;BME280;19508;42.578;23.416;2023-03-14T13:39:55;92985.28;;;24.54;16.85
33151;BME280;19508;42.578;23.416;2023-03-14T13:42:26;92978.06;;;23.79;17.44
33151;BME280;19508;42.578;23.416;2023-03-14T13:44:54;92974.13;;;22.61;18.42
33151;BME280;19508;42.578;23.416;2023-03-14T13:47:23;92974.84;;;22.05;19.14
33151;BME280;19508;42.578;23.416;2023-03-14T13:49:49;92969.47;;;21.96;19.75
33151;BME280;19508;42.578;23.416;2023-03-14T13:52:32;92964.56;;;21.78;19.19
33151;BME280;19508;42.578;23.416;2023-03-14T13:55:01;92963.41;;;21.91;19.96